Accueil
METAR-TAF:

METAR-TAF

Aéroports :

Aéroport de Ghriss

Ghriss, Algérie

latitude: 35-12N, longitude: 000-08E, altitude: 514 m

Observation

Le bulletin a été fait il y a 32 minutes, à 18:00 UTC
Vent 13 kt de nord-est
Température 18°C
Humidité 59%
Pression 1012 hPa
Visibilité 10 km ou plus
Quelques nuages à une hauteur de 2600 ft, Cumulonimbus.
Nuages épars à une hauteur de 3000 ft

METAR: DAOV 261800Z 04013KT 9999 FEW026CB SCT030 18/10 Q1012

Heure: 19:32 (18:32 UTC)

Prévision

Le bulletin a été fait il y a 1 heure et 32 minutes, à 17:00 UTC
Prévision valable du 26 à 18 UTC au 27 à 03 UTC
Vent 15 kt de nord-est
Visibilité 10 km ou plus
Nuages épars à une hauteur de 3000 ft
Probabilité 30% :
Temporairement
du 26 à 23 UTC au 27 à 03 UTC
Visibilité: 5000 m
Quelques nuages à une hauteur de 2600 ft, Cumulus congestus.
orage, pluie faible

TAF: DAOV 261700Z 2618/2703 05015KT 9999 SCT030 PROB30 TEMPO 2623/2703 5000 -TSRA FEW026TCU

Observations et prévisions météorologiques de plus de 4000 aéroports (messages METAR et TAF).

Les stations disponibles sont représentées par des disques jaunes et rouges sur la carte.

Passer la souris dessus pour voir le nom de la station.

Cliquer dessus pour voir les observations et prévisions météorologiques.

Pour changer de carte: cliquez sur les boutons verts avec une croix noire pour zoomer, sur le bouton vert avec un tiret pour effectuer un zoom arrière, ou sur les flèches vertes pour les cartes adjacentes.


METAR-TAF: